sensor_id;sensor_type;location;lat;lon;timestamp;temperature;humidity
24518;DHT22;12678;51.336;12.406;2024-03-08T00:02:14;1.70;99.90
24518;DHT22;12678;51.336;12.406;2024-03-08T00:04:39;1.70;99.90
24518;DHT22;12678;51.336;12.406;2024-03-08T00:07:05;1.60;99.90
24518;DHT22;12678;51.336;12.406;2024-03-08T00:09:31;1.60;99.90
24518;DHT22;12678;51.336;12.406;2024-03-08T00:11:57;1.50;99.90
24518;DHT22;12678;51.336;12.406;2024-03-08T00:14:23;1.50;99.90
24518;DHT22;12678;51.336;12.406;2024-03-08T00:16:49;1.50;99.90
24518;DHT22;12678;51.336;12.406;2024-03-08T00:19:15;1.50;99.90
24518;DHT22;12678;51.336;12.406;2024-03-08T00:21:40;1.50;99.90
24518;DHT22;12678;51.336;12.406;2024-03-08T00:24:07;1.50;99.90
24518;DHT22;12678;51.336;12.406;2024-03-08T00:26:33;1.40;99.90
24518;DHT22;12678;51.336;12.406;2024-03-08T00:28:58;1.50;99.90
24518;DHT22;12678;51.336;12.406;2024-03-08T00:31:24;1.50;99.90
24518;DHT22;12678;51.336;12.406;2024-03-08T00:33:54;1.40;99.90
24518;DHT22;12678;51.336;12.406;2024-03-08T00:36:19;1.50;99.90
24518;DHT22;12678;51.336;12.406;2024-03-08T00:38:45;1.60;99.90
24518;DHT22;12678;51.336;12.406;2024-03-08T00:41:11;1.50;99.90
24518;DHT22;12678;51.336;12.406;2024-03-08T00:43:36;1.50;99.90
24518;DHT22;12678;51.336;12.406;2024-03-08T00:46:02;1.60;99.90
24518;DHT22;12678;51.336;12.406;2024-03-08T00:48:28;1.60;99.90
24518;DHT22;12678;51.336;12.406;2024-03-08T00:50:53;1.60;99.90
24518;DHT22;12678;51.336;12.406;2024-03-08T00:53:19;1.60;99.90
24518;DHT22;12678;51.336;12.406;2024-03-08T00:55:44;1.60;99.90
24518;DHT22;12678;51.336;12.406;2024-03-08T00:58:12;1.50;99.90
24518;DHT22;12678;51.336;12.406;2024-03-08T01:00:38;1.60;99.90
24518;DHT22;12678;51.336;12.406;2024-03-08T01:03:07;1.60;99.90
24518;DHT22;12678;51.336;12.406;2024-03-08T01:05:33;1.60;99.90
24518;DHT22;12678;51.336;12.406;2024-03-08T01:08:00;1.60;99.90
24518;DHT22;12678;51.336;12.406;2024-03-08T01:10:26;1.50;99.90
24518;DHT22;12678;51.336;12.406;2024-03-08T01:12:52;1.50;99.90
24518;DHT22;12678;51.336;12.406;2024-03-08T01:15:21;1.50;99.90
24518;DHT22;12678;51.336;12.406;2024-03-08T01:17:46;1.40;99.90
24518;DHT22;12678;51.336;12.406;2024-03-08T01:20:12;1.40;99.90
24518;DHT22;12678;51.336;12.406;2024-03-08T01:22:38;1.40;99.90
24518;DHT22;12678;51.336;12.406;2024-03-08T01:25:04;1.30;99.90
24518;DHT22;12678;51.336;12.406;2024-03-08T01:27:30;1.40;99.90
24518;DHT22;12678;51.336;12.406;2024-03-08T01:29:56;1.30;99.90
24518;DHT22;12678;51.336;12.406;2024-03-08T01:32:21;1.30;99.90
24518;DHT22;12678;51.336;12.406;2024-03-08T01:34:49;1.30;99.90
24518;DHT22;12678;51.336;12.406;2024-03-08T01:37:14;1.30;99.90
24518;DHT22;12678;51.336;12.406;2024-03-08T01:39:41;1.30;99.90
24518;DHT22;12678;51.336;12.406;2024-03-08T01:42:07;1.20;99.90
24518;DHT22;12678;51.336;12.406;2024-03-08T01:44:32;1.20;99.90
24518;DHT22;12678;51.336;12.406;2024-03-08T01:46:58;1.20;99.90
24518;DHT22;12678;51.336;12.406;2024-03-08T01:49:24;1.20;99.90
24518;DHT22;12678;51.336;12.406;2024-03-08T01:51:51;1.20;99.90
24518;DHT22;12678;51.336;12.406;2024-03-08T01:54:18;1.20;99.90
24518;DHT22;12678;51.336;12.406;2024-03-08T01:56:45;1.20;99.90
24518;DHT22;12678;51.336;12.406;2024-03-08T01:59:11;1.20;99.90
24518;DHT22;12678;51.336;12.406;2024-03-08T02:01:37;1.20;99.90
24518;DHT22;12678;51.336;12.406;2024-03-08T02:04:03;1.30;99.90
24518;DHT22;12678;51.336;12.406;2024-03-08T02:06:31;1.30;99.90
24518;DHT22;12678;51.336;12.406;2024-03-08T02:08:57;1.30;99.90
24518;DHT22;12678;51.336;12.406;2024-03-08T02:11:22;1.30;99.90
24518;DHT22;12678;51.336;12.406;2024-03-08T02:13:48;1.40;99.90
24518;DHT22;12678;51.336;12.406;2024-03-08T02:16:20;1.30;99.90
24518;DHT22;12678;51.336;12.406;2024-03-08T02:18:46;1.20;99.90
24518;DHT22;12678;51.336;12.406;2024-03-08T02:21:12;1.10;99.90
24518;DHT22;12678;51.336;12.406;2024-03-08T02:23:39;1.20;99.90
24518;DHT22;12678;51.336;12.406;2024-03-08T02:26:05;1.10;99.90
24518;DHT22;12678;51.336;12.406;2024-03-08T02:28:34;1.10;99.90
24518;DHT22;12678;51.336;12.406;2024-03-08T02:30:59;1.10;99.90
24518;DHT22;12678;51.336;12.406;2024-03-08T02:33:26;1.20;99.90
24518;DHT22;12678;51.336;12.406;2024-03-08T02:35:52;1.30;99.90
24518;DHT22;12678;51.336;12.406;2024-03-08T02:38:19;1.30;99.90
24518;DHT22;12678;51.336;12.406;2024-03-08T02:40:48;1.20;99.90
24518;DHT22;12678;51.336;12.406;2024-03-08T02:43:14;1.20;99.90
24518;DHT22;12678;51.336;12.406;2024-03-08T02:45:41;1.10;99.90
24518;DHT22;12678;51.336;12.406;2024-03-08T02:48:12;1.10;99.90
24518;DHT22;12678;51.336;12.406;2024-03-08T02:50:38;1.00;99.90
24518;DHT22;12678;51.336;12.406;2024-03-08T02:53:10;1.10;99.90
24518;DHT22;12678;51.336;12.406;2024-03-08T02:55:40;1.00;99.90
24518;DHT22;12678;51.336;12.406;2024-03-08T02:58:06;1.00;99.90
24518;DHT22;12678;51.336;12.406;2024-03-08T03:00:36;1.00;99.90
24518;DHT22;12678;51.336;12.406;2024-03-08T03:03:02;1.00;99.90
24518;DHT22;12678;51.336;12.406;2024-03-08T03:05:29;1.00;99.90
24518;DHT22;12678;51.336;12.406;2024-03-08T03:07:55;1.00;99.90
24518;DHT22;12678;51.336;12.406;2024-03-08T03:10:21;1.00;99.90
24518;DHT22;12678;51.336;12.406;2024-03-08T03:12:49;1.00;99.90
24518;DHT22;12678;51.336;12.406;2024-03-08T03:15:15;0.90;99.90
24518;DHT22;12678;51.336;12.406;2024-03-08T03:17:49;1.00;99.90
24518;DHT22;12678;51.336;12.406;2024-03-08T03:20:18;0.90;99.90
24518;DHT22;12678;51.336;12.406;2024-03-08T03:22:51;0.90;99.90
24518;DHT22;12678;51.336;12.406;2024-03-08T03:25:20;0.90;99.90
24518;DHT22;12678;51.336;12.406;2024-03-08T03:27:51;0.90;99.90
24518;DHT22;12678;51.336;12.406;2024-03-08T03:30:17;0.90;99.90
24518;DHT22;12678;51.336;12.406;2024-03-08T03:32:51;0.90;99.90
24518;DHT22;12678;51.336;12.406;2024-03-08T03:35:18;0.90;99.90
24518;DHT22;12678;51.336;12.406;2024-03-08T03:37:46;0.90;99.90
24518;DHT22;12678;51.336;12.406;2024-03-08T03:40:27;1.00;99.90
24518;DHT22;12678;51.336;12.406;2024-03-08T03:42:53;1.00;99.90
24518;DHT22;12678;51.336;12.406;2024-03-08T03:45:18;0.90;99.90
24518;DHT22;12678;51.336;12.406;2024-03-08T03:47:45;1.00;99.90
24518;DHT22;12678;51.336;12.406;2024-03-08T03:50:11;0.90;99.90
24518;DHT22;12678;51.336;12.406;2024-03-08T03:52:38;0.90;99.90
24518;DHT22;12678;51.336;12.406;2024-03-08T03:55:04;0.90;99.90
24518;DHT22;12678;51.336;12.406;2024-03-08T03:57:30;0.80;99.90
24518;DHT22;12678;51.336;12.406;2024-03-08T03:59:57;0.80;99.90
24518;DHT22;12678;51.336;12.406;2024-03-08T04:02:29;0.80;99.90
24518;DHT22;12678;51.336;12.406;2024-03-08T04:04:55;0.70;99.90
24518;DHT22;12678;51.336;12.406;2024-03-08T04:07:21;0.80;99.90
24518;DHT22;12678;51.336;12.406;2024-03-08T04:09:49;0.80;99.90
24518;DHT22;12678;51.336;12.406;2024-03-08T04:12:18;0.90;99.90
24518;DHT22;12678;51.336;12.406;2024-03-08T04:14:45;0.80;99.90
24518;DHT22;12678;51.336;12.406;2024-03-08T04:17:10;0.80;99.90
24518;DHT22;12678;51.336;12.406;2024-03-08T04:19:38;0.80;99.90
24518;DHT22;12678;51.336;12.406;2024-03-08T04:22:05;0.70;99.90
24518;DHT22;12678;51.336;12.406;2024-03-08T04:24:33;0.80;99.90
24518;DHT22;12678;51.336;12.406;2024-03-08T04:26:58;0.90;99.90
24518;DHT22;12678;51.336;12.406;2024-03-08T04:29:24;0.80;99.90
24518;DHT22;12678;51.336;12.406;2024-03-08T04:31:50;0.80;99.90
24518;DHT22;12678;51.336;12.406;2024-03-08T04:34:22;0.70;99.90
24518;DHT22;12678;51.336;12.406;2024-03-08T04:37:07;0.70;99.90
24518;DHT22;12678;51.336;12.406;2024-03-08T04:39:36;0.60;99.90
24518;DHT22;12678;51.336;12.406;2024-03-08T04:42:02;0.60;99.90
24518;DHT22;12678;51.336;12.406;2024-03-08T04:44:32;0.70;99.90
24518;DHT22;12678;51.336;12.406;2024-03-08T04:46:58;0.80;99.90
24518;DHT22;12678;51.336;12.406;2024-03-08T04:49:25;0.70;99.90
24518;DHT22;12678;51.336;12.406;2024-03-08T04:51:51;0.60;99.90
24518;DHT22;12678;51.336;12.406;2024-03-08T04:54:16;0.60;99.90
24518;DHT22;12678;51.336;12.406;2024-03-08T04:56:42;0.70;99.90
24518;DHT22;12678;51.336;12.406;2024-03-08T04:59:07;0.60;99.90
24518;DHT22;12678;51.336;12.406;2024-03-08T05:01:34;0.70;99.90
24518;DHT22;12678;51.336;12.406;2024-03-08T05:03:59;0.60;99.90
24518;DHT22;12678;51.336;12.406;2024-03-08T05:06:25;0.60;99.90
24518;DHT22;12678;51.336;12.406;2024-03-08T05:08:50;0.60;99.90
24518;DHT22;12678;51.336;12.406;2024-03-08T05:11:16;0.70;99.90
24518;DHT22;12678;51.336;12.406;2024-03-08T05:13:41;0.70;99.90
24518;DHT22;12678;51.336;12.406;2024-03-08T05:16:07;0.60;99.90
24518;DHT22;12678;51.336;12.406;2024-03-08T05:18:33;0.60;99.90
24518;DHT22;12678;51.336;12.406;2024-03-08T05:20:59;0.60;99.90
24518;DHT22;12678;51.336;12.406;2024-03-08T05:23:25;0.60;99.90
24518;DHT22;12678;51.336;12.406;2024-03-08T05:25:50;0.60;99.90
24518;DHT22;12678;51.336;12.406;2024-03-08T05:28:16;0.50;99.90
24518;DHT22;12678;51.336;12.406;2024-03-08T05:30:42;0.60;99.90
24518;DHT22;12678;51.336;12.406;2024-03-08T05:33:07;0.50;99.90
24518;DHT22;12678;51.336;12.406;2024-03-08T05:35:36;0.60;99.90
24518;DHT22;12678;51.336;12.406;2024-03-08T05:38:01;0.60;99.90
24518;DHT22;12678;51.336;12.406;2024-03-08T05:40:27;0.60;99.90
24518;DHT22;12678;51.336;12.406;2024-03-08T05:42:58;0.60;99.90
24518;DHT22;12678;51.336;12.406;2024-03-08T05:45:25;0.70;99.90
24518;DHT22;12678;51.336;12.406;2024-03-08T05:47:51;0.60;99.90
24518;DHT22;12678;51.336;12.406;2024-03-08T05:50:19;0.60;99.90
24518;DHT22;12678;51.336;12.406;2024-03-08T05:52:45;0.60;99.90
24518;DHT22;12678;51.336;12.406;2024-03-08T05:55:13;0.70;99.90
24518;DHT22;12678;51.336;12.406;2024-03-08T05:57:40;0.80;99.90
24518;DHT22;12678;51.336;12.406;2024-03-08T06:00:06;0.80;99.90
24518;DHT22;12678;51.336;12.406;2024-03-08T06:02:32;0.70;99.90
24518;DHT22;12678;51.336;12.406;2024-03-08T06:04:58;0.70;99.90
24518;DHT22;12678;51.336;12.406;2024-03-08T06:07:23;0.70;99.90
24518;DHT22;12678;51.336;12.406;2024-03-08T06:09:49;0.70;99.90
24518;DHT22;12678;51.336;12.406;2024-03-08T06:12:15;0.70;99.90
24518;DHT22;12678;51.336;12.406;2024-03-08T06:14:44;0.60;99.90
24518;DHT22;12678;51.336;12.406;2024-03-08T06:17:10;0.70;99.90
24518;DHT22;12678;51.336;12.406;2024-03-08T06:19:36;0.80;99.90
24518;DHT22;12678;51.336;12.406;2024-03-08T06:22:02;0.80;99.90
24518;DHT22;12678;51.336;12.406;2024-03-08T06:24:34;0.90;99.90
24518;DHT22;12678;51.336;12.406;2024-03-08T06:27:01;0.90;99.90
24518;DHT22;12678;51.336;12.406;2024-03-08T06:29:27;0.90;99.90
24518;DHT22;12678;51.336;12.406;2024-03-08T06:31:52;1.00;99.90
24518;DHT22;12678;51.336;12.406;2024-03-08T06:34:18;1.00;99.90
24518;DHT22;12678;51.336;12.406;2024-03-08T06:36:44;1.10;99.90
24518;DHT22;12678;51.336;12.406;2024-03-08T06:39:10;1.10;99.90
24518;DHT22;12678;51.336;12.406;2024-03-08T06:41:38;1.10;99.90
24518;DHT22;12678;51.336;12.406;2024-03-08T06:44:04;1.20;99.90
24518;DHT22;12678;51.336;12.406;2024-03-08T06:46:30;1.20;99.90
24518;DHT22;12678;51.336;12.406;2024-03-08T06:48:56;1.20;99.90
24518;DHT22;12678;51.336;12.406;2024-03-08T06:51:21;1.20;99.90
24518;DHT22;12678;51.336;12.406;2024-03-08T06:53:47;1.20;99.90
24518;DHT22;12678;51.336;12.406;2024-03-08T06:56:14;1.20;99.90
24518;DHT22;12678;51.336;12.406;2024-03-08T06:58:40;1.40;99.90
24518;DHT22;12678;51.336;12.406;2024-03-08T07:01:06;1.40;99.90
24518;DHT22;12678;51.336;12.406;2024-03-08T07:03:33;1.40;99.90
24518;DHT22;12678;51.336;12.406;2024-03-08T07:05:58;1.50;99.90
24518;DHT22;12678;51.336;12.406;2024-03-08T07:08:24;1.50;99.90
24518;DHT22;12678;51.336;12.406;2024-03-08T07:10:52;1.70;99.90
24518;DHT22;12678;51.336;12.406;2024-03-08T07:13:18;1.90;99.90
24518;DHT22;12678;51.336;12.406;2024-03-08T07:15:44;2.00;99.90
24518;DHT22;12678;51.336;12.406;2024-03-08T07:18:11;1.90;99.90
24518;DHT22;12678;51.336;12.406;2024-03-08T07:20:39;1.90;99.90
24518;DHT22;12678;51.336;12.406;2024-03-08T07:23:05;1.90;99.90
24518;DHT22;12678;51.336;12.406;2024-03-08T07:25:32;1.90;99.90
24518;DHT22;12678;51.336;12.406;2024-03-08T07:27:57;2.00;99.90
24518;DHT22;12678;51.336;12.406;2024-03-08T07:30:25;1.80;99.90
24518;DHT22;12678;51.336;12.406;2024-03-08T07:33:09;1.90;99.90
24518;DHT22;12678;51.336;12.406;2024-03-08T07:35:37;2.00;99.90
24518;DHT22;12678;51.336;12.406;2024-03-08T07:40:38;2.10;99.90
24518;DHT22;12678;51.336;12.406;2024-03-08T07:43:07;2.20;99.90
24518;DHT22;12678;51.336;12.406;2024-03-08T07:45:32;2.30;99.90
24518;DHT22;12678;51.336;12.406;2024-03-08T07:47:58;2.50;99.90
24518;DHT22;12678;51.336;12.406;2024-03-08T07:50:24;2.60;99.90
24518;DHT22;12678;51.336;12.406;2024-03-08T07:52:49;2.80;99.90
24518;DHT22;12678;51.336;12.406;2024-03-08T07:55:15;2.70;99.90
24518;DHT22;12678;51.336;12.406;2024-03-08T07:57:40;2.60;99.90
24518;DHT22;12678;51.336;12.406;2024-03-08T08:00:08;2.70;99.90
24518;DHT22;12678;51.336;12.406;2024-03-08T08:02:34;2.80;99.90
24518;DHT22;12678;51.336;12.406;2024-03-08T08:05:01;2.90;99.90
24518;DHT22;12678;51.336;12.406;2024-03-08T08:07:27;2.90;99.90
24518;DHT22;12678;51.336;12.406;2024-03-08T08:09:53;3.00;99.90
24518;DHT22;12678;51.336;12.406;2024-03-08T08:12:19;3.10;99.90
24518;DHT22;12678;51.336;12.406;2024-03-08T08:14:46;3.30;99.90
24518;DHT22;12678;51.336;12.406;2024-03-08T08:17:13;3.40;99.90
24518;DHT22;12678;51.336;12.406;2024-03-08T08:19:40;3.50;99.90
24518;DHT22;12678;51.336;12.406;2024-03-08T08:22:06;3.50;99.90
24518;DHT22;12678;51.336;12.406;2024-03-08T08:24:34;3.60;99.90
24518;DHT22;12678;51.336;12.406;2024-03-08T08:26:59;3.60;99.90
24518;DHT22;12678;51.336;12.406;2024-03-08T08:29:27;3.60;99.90
24518;DHT22;12678;51.336;12.406;2024-03-08T08:31:52;3.70;99.90
24518;DHT22;12678;51.336;12.406;2024-03-08T08:34:18;3.80;99.90
24518;DHT22;12678;51.336;12.406;2024-03-08T08:36:44;3.80;99.90
24518;DHT22;12678;51.336;12.406;2024-03-08T08:39:11;3.90;99.90
24518;DHT22;12678;51.336;12.406;2024-03-08T08:41:39;4.00;99.90
24518;DHT22;12678;51.336;12.406;2024-03-08T08:44:07;4.10;99.90
24518;DHT22;12678;51.336;12.406;2024-03-08T08:46:36;4.30;99.90
24518;DHT22;12678;51.336;12.406;2024-03-08T08:49:03;4.50;99.90
24518;DHT22;12678;51.336;12.406;2024-03-08T08:51:28;4.70;99.90
24518;DHT22;12678;51.336;12.406;2024-03-08T08:53:58;4.70;99.90
24518;DHT22;12678;51.336;12.406;2024-03-08T08:56:25;4.70;99.90
24518;DHT22;12678;51.336;12.406;2024-03-08T08:58:51;4.70;99.90
24518;DHT22;12678;51.336;12.406;2024-03-08T09:01:17;4.80;99.90
24518;DHT22;12678;51.336;12.406;2024-03-08T09:03:43;4.70;99.90
24518;DHT22;12678;51.336;12.406;2024-03-08T09:06:12;4.80;99.90
24518;DHT22;12678;51.336;12.406;2024-03-08T09:08:38;4.80;99.90
24518;DHT22;12678;51.336;12.406;2024-03-08T09:11:04;4.90;99.90
24518;DHT22;12678;51.336;12.406;2024-03-08T09:13:31;5.00;99.90
24518;DHT22;12678;51.336;12.406;2024-03-08T09:15:57;5.00;99.90
24518;DHT22;12678;51.336;12.406;2024-03-08T09:18:22;5.20;99.90
24518;DHT22;12678;51.336;12.406;2024-03-08T09:20:49;5.30;99.90
24518;DHT22;12678;51.336;12.406;2024-03-08T09:23:15;5.30;99.90
24518;DHT22;12678;51.336;12.406;2024-03-08T09:25:42;5.20;99.90
24518;DHT22;12678;51.336;12.406;2024-03-08T09:28:08;5.20;99.90
24518;DHT22;12678;51.336;12.406;2024-03-08T09:30:34;5.30;99.90
24518;DHT22;12678;51.336;12.406;2024-03-08T09:33:00;5.40;99.90
24518;DHT22;12678;51.336;12.406;2024-03-08T09:35:27;5.40;99.90
24518;DHT22;12678;51.336;12.406;2024-03-08T09:37:53;5.50;99.90
24518;DHT22;12678;51.336;12.406;2024-03-08T09:40:19;5.60;99.90
24518;DHT22;12678;51.336;12.406;2024-03-08T09:42:46;5.80;99.90
24518;DHT22;12678;51.336;12.406;2024-03-08T09:45:14;5.80;99.90
24518;DHT22;12678;51.336;12.406;2024-03-08T09:47:41;5.70;99.90
24518;DHT22;12678;51.336;12.406;2024-03-08T09:50:08;5.80;99.90
24518;DHT22;12678;51.336;12.406;2024-03-08T09:52:38;5.70;99.90
24518;DHT22;12678;51.336;12.406;2024-03-08T09:55:06;5.80;99.90
24518;DHT22;12678;51.336;12.406;2024-03-08T09:57:33;5.90;99.90
24518;DHT22;12678;51.336;12.406;2024-03-08T09:59:59;6.10;99.90
24518;DHT22;12678;51.336;12.406;2024-03-08T10:02:25;6.10;99.90
24518;DHT22;12678;51.336;12.406;2024-03-08T10:04:51;6.20;99.90
24518;DHT22;12678;51.336;12.406;2024-03-08T10:07:19;6.20;99.90
24518;DHT22;12678;51.336;12.406;2024-03-08T10:09:44;6.30;99.90
24518;DHT22;12678;51.336;12.406;2024-03-08T10:12:15;6.20;99.90
24518;DHT22;12678;51.336;12.406;2024-03-08T10:14:41;6.20;99.90
24518;DHT22;12678;51.336;12.406;2024-03-08T10:17:07;6.20;99.90
24518;DHT22;12678;51.336;12.406;2024-03-08T10:19:33;6.30;99.90
24518;DHT22;12678;51.336;12.406;2024-03-08T10:22:00;6.40;99.90
24518;DHT22;12678;51.336;12.406;2024-03-08T10:24:26;6.50;99.90
24518;DHT22;12678;51.336;12.406;2024-03-08T10:26:58;6.60;99.90
24518;DHT22;12678;51.336;12.406;2024-03-08T10:29:24;6.80;99.90
24518;DHT22;12678;51.336;12.406;2024-03-08T10:31:49;6.80;99.90
24518;DHT22;12678;51.336;12.406;2024-03-08T10:34:16;6.80;99.90
24518;DHT22;12678;51.336;12.406;2024-03-08T10:36:42;6.80;99.90
24518;DHT22;12678;51.336;12.406;2024-03-08T10:39:33;6.90;99.90
24518;DHT22;12678;51.336;12.406;2024-03-08T10:42:02;6.90;99.90
24518;DHT22;12678;51.336;12.406;2024-03-08T10:47:35;6.90;99.90
24518;DHT22;12678;51.336;12.406;2024-03-08T10:50:11;6.90;99.90
24518;DHT22;12678;51.336;12.406;2024-03-08T10:52:40;7.00;99.90
24518;DHT22;12678;51.336;12.406;2024-03-08T10:55:07;7.10;99.90
24518;DHT22;12678;51.336;12.406;2024-03-08T10:57:41;7.20;99.90
24518;DHT22;12678;51.336;12.406;2024-03-08T11:00:08;7.20;99.90
24518;DHT22;12678;51.336;12.406;2024-03-08T11:02:36;7.00;99.90
24518;DHT22;12678;51.336;12.406;2024-03-08T11:05:10;7.20;99.90
24518;DHT22;12678;51.336;12.406;2024-03-08T11:07:42;7.20;99.90
24518;DHT22;12678;51.336;12.406;2024-03-08T11:10:19;7.30;99.90
24518;DHT22;12678;51.336;12.406;2024-03-08T11:12:45;7.40;99.90
24518;DHT22;12678;51.336;12.406;2024-03-08T11:15:13;7.40;99.90
24518;DHT22;12678;51.336;12.406;2024-03-08T11:17:48;7.40;99.90
24518;DHT22;12678;51.336;12.406;2024-03-08T11:20:16;7.50;99.90
24518;DHT22;12678;51.336;12.406;2024-03-08T11:22:52;7.40;99.90
24518;DHT22;12678;51.336;12.406;2024-03-08T11:25:39;7.50;99.90
24518;DHT22;12678;51.336;12.406;2024-03-08T11:28:36;7.50;99.90
24518;DHT22;12678;51.336;12.406;2024-03-08T11:33:35;7.50;99.90
24518;DHT22;12678;51.336;12.406;2024-03-08T11:38:30;7.80;99.90
24518;DHT22;12678;51.336;12.406;2024-03-08T11:40:57;7.80;99.90
24518;DHT22;12678;51.336;12.406;2024-03-08T11:43:22;7.70;99.90
24518;DHT22;12678;51.336;12.406;2024-03-08T11:45:49;7.80;99.90
24518;DHT22;12678;51.336;12.406;2024-03-08T11:48:14;7.70;99.90
24518;DHT22;12678;51.336;12.406;2024-03-08T11:50:40;7.80;99.90
24518;DHT22;12678;51.336;12.406;2024-03-08T11:53:07;7.80;99.90
24518;DHT22;12678;51.336;12.406;2024-03-08T11:55:33;7.80;99.90
24518;DHT22;12678;51.336;12.406;2024-03-08T11:58:05;7.90;99.90
24518;DHT22;12678;51.336;12.406;2024-03-08T12:00:33;8.00;99.90
24518;DHT22;12678;51.336;12.406;2024-03-08T12:03:07;8.10;99.90
24518;DHT22;12678;51.336;12.406;2024-03-08T12:05:36;8.10;99.90
24518;DHT22;12678;51.336;12.406;2024-03-08T12:08:05;8.10;99.90
24518;DHT22;12678;51.336;12.406;2024-03-08T12:10:33;8.10;99.90
24518;DHT22;12678;51.336;12.406;2024-03-08T12:12:59;8.10;99.90
24518;DHT22;12678;51.336;12.406;2024-03-08T12:15:25;8.20;99.90
24518;DHT22;12678;51.336;12.406;2024-03-08T12:17:55;8.20;99.90
24518;DHT22;12678;51.336;12.406;2024-03-08T12:20:24;8.20;99.90
24518;DHT22;12678;51.336;12.406;2024-03-08T12:22:56;8.30;99.90
24518;DHT22;12678;51.336;12.406;2024-03-08T12:25:33;8.20;99.90
24518;DHT22;12678;51.336;12.406;2024-03-08T12:28:10;8.20;99.90
24518;DHT22;12678;51.336;12.406;2024-03-08T12:30:51;8.30;99.90
24518;DHT22;12678;51.336;12.406;2024-03-08T12:33:19;8.50;99.90
24518;DHT22;12678;51.336;12.406;2024-03-08T12:35:55;8.50;99.90
24518;DHT22;12678;51.336;12.406;2024-03-08T12:38:21;8.40;99.90
24518;DHT22;12678;51.336;12.406;2024-03-08T12:40:50;8.40;99.90
24518;DHT22;12678;51.336;12.406;2024-03-08T12:43:16;8.40;99.90
24518;DHT22;12678;51.336;12.406;2024-03-08T12:45:41;8.40;99.90
24518;DHT22;12678;51.336;12.406;2024-03-08T12:48:13;8.40;99.90
24518;DHT22;12678;51.336;12.406;2024-03-08T12:50:40;8.50;99.90
24518;DHT22;12678;51.336;12.406;2024-03-08T12:53:06;8.50;99.90
24518;DHT22;12678;51.336;12.406;2024-03-08T12:55:32;8.40;99.90
24518;DHT22;12678;51.336;12.406;2024-03-08T12:57:58;8.50;99.90
24518;DHT22;12678;51.336;12.406;2024-03-08T13:00:26;8.50;99.90
24518;DHT22;12678;51.336;12.406;2024-03-08T13:02:53;8.50;99.90
24518;DHT22;12678;51.336;12.406;2024-03-08T13:05:19;8.50;99.90
24518;DHT22;12678;51.336;12.406;2024-03-08T13:07:45;8.60;99.90
24518;DHT22;12678;51.336;12.406;2024-03-08T13:10:15;8.70;99.90
24518;DHT22;12678;51.336;12.406;2024-03-08T13:12:44;8.60;99.90
24518;DHT22;12678;51.336;12.406;2024-03-08T13:15:10;8.70;99.90
24518;DHT22;12678;51.336;12.406;2024-03-08T13:17:49;8.80;99.90
24518;DHT22;12678;51.336;12.406;2024-03-08T13:20:14;8.70;99.90
24518;DHT22;12678;51.336;12.406;2024-03-08T13:22:45;8.60;99.90
24518;DHT22;12678;51.336;12.406;2024-03-08T13:25:12;8.70;99.90
24518;DHT22;12678;51.336;12.406;2024-03-08T13:27:40;8.70;99.90
24518;DHT22;12678;51.336;12.406;2024-03-08T13:30:07;8.70;99.90
24518;DHT22;12678;51.336;12.406;2024-03-08T13:32:32;8.80;99.90
24518;DHT22;12678;51.336;12.406;2024-03-08T13:34:58;8.90;99.90
24518;DHT22;12678;51.336;12.406;2024-03-08T13:37:23;8.80;99.90
24518;DHT22;12678;51.336;12.406;2024-03-08T13:39:49;8.90;99.90
24518;DHT22;12678;51.336;12.406;2024-03-08T13:42:15;9.00;99.90
24518;DHT22;12678;51.336;12.406;2024-03-08T13:44:48;8.80;99.90
24518;DHT22;12678;51.336;12.406;2024-03-08T13:47:18;8.80;99.90
24518;DHT22;12678;51.336;12.406;2024-03-08T13:49:44;8.80;99.90
24518;DHT22;12678;51.336;12.406;2024-03-08T13:52:10;8.80;99.90
24518;DHT22;12678;51.336;12.406;2024-03-08T13:54:36;8.90;99.90
24518;DHT22;12678;51.336;12.406;2024-03-08T13:57:04;8.90;99.90
24518;DHT22;12678;51.336;12.406;2024-03-08T13:59:34;9.00;99.90
24518;DHT22;12678;51.336;12.406;2024-03-08T14:02:01;9.00;99.90
24518;DHT22;12678;51.336;12.406;2024-03-08T14:04:28;9.00;99.90
24518;DHT22;12678;51.336;12.406;2024-03-08T14:06:53;9.00;99.90
24518;DHT22;12678;51.336;12.406;2024-03-08T14:09:24;8.90;99.90
24518;DHT22;12678;51.336;12.406;2024-03-08T14:11:51;8.90;99.90
24518;DHT22;12678;51.336;12.406;2024-03-08T14:14:21;8.90;99.90
24518;DHT22;12678;51.336;12.406;2024-03-08T14:16:49;8.90;99.90
24518;DHT22;12678;51.336;12.406;2024-03-08T14:19:18;8.90;99.90
24518;DHT22;12678;51.336;12.406;2024-03-08T14:21:43;9.00;99.90
24518;DHT22;12678;51.336;12.406;2024-03-08T14:24:10;9.00;99.90
24518;DHT22;12678;51.336;12.406;2024-03-08T14:26:35;9.00;99.90
24518;DHT22;12678;51.336;12.406;2024-03-08T14:29:04;9.10;99.90
24518;DHT22;12678;51.336;12.406;2024-03-08T14:31:30;9.10;99.90
24518;DHT22;12678;51.336;12.406;2024-03-08T14:33:56;9.00;99.90
24518;DHT22;12678;51.336;12.406;2024-03-08T14:36:24;9.10;99.90
24518;DHT22;12678;51.336;12.406;2024-03-08T14:38:51;9.10;99.90
24518;DHT22;12678;51.336;12.406;2024-03-08T14:41:18;9.10;99.90
24518;DHT22;12678;51.336;12.406;2024-03-08T14:43:44;9.10;99.90
24518;DHT22;12678;51.336;12.406;2024-03-08T14:46:13;9.10;99.90
24518;DHT22;12678;51.336;12.406;2024-03-08T14:48:49;9.10;99.90
24518;DHT22;12678;51.336;12.406;2024-03-08T14:51:19;9.10;99.90
24518;DHT22;12678;51.336;12.406;2024-03-08T14:53:48;9.10;99.90
24518;DHT22;12678;51.336;12.406;2024-03-08T14:56:15;9.10;99.90
24518;DHT22;12678;51.336;12.406;2024-03-08T14:58:45;9.10;99.90
24518;DHT22;12678;51.336;12.406;2024-03-08T15:01:12;9.10;99.90
24518;DHT22;12678;51.336;12.406;2024-03-08T15:03:39;9.10;99.90
24518;DHT22;12678;51.336;12.406;2024-03-08T15:06:05;9.10;99.90
24518;DHT22;12678;51.336;12.406;2024-03-08T15:08:38;9.00;99.90
24518;DHT22;12678;51.336;12.406;2024-03-08T15:11:04;9.00;99.90
24518;DHT22;12678;51.336;12.406;2024-03-08T15:13:33;9.00;99.90
24518;DHT22;12678;51.336;12.406;2024-03-08T15:16:09;9.00;99.90
24518;DHT22;12678;51.336;12.406;2024-03-08T15:18:40;9.00;99.90
24518;DHT22;12678;51.336;12.406;2024-03-08T15:21:06;9.00;99.90
24518;DHT22;12678;51.336;12.406;2024-03-08T15:23:35;9.00;99.90
24518;DHT22;12678;51.336;12.406;2024-03-08T15:26:01;9.10;99.90
24518;DHT22;12678;51.336;12.406;2024-03-08T15:28:30;9.00;99.90
24518;DHT22;12678;51.336;12.406;2024-03-08T15:31:04;9.10;99.90
24518;DHT22;12678;51.336;12.406;2024-03-08T15:33:32;9.10;99.90
24518;DHT22;12678;51.336;12.406;2024-03-08T15:35:58;9.10;99.90
24518;DHT22;12678;51.336;12.406;2024-03-08T15:38:25;9.10;99.90
24518;DHT22;12678;51.336;12.406;2024-03-08T15:40:54;9.10;99.90
24518;DHT22;12678;51.336;12.406;2024-03-08T15:43:22;9.10;99.90